sensor_id;sensor_type;location;lat;lon;timestamp;P1;durP1;ratioP1;P2;durP2;ratioP2
12687;SDS011;6408;59.388;17.798;2023-09-30T00:00:51;15.40;;;6.60;;
12687;SDS011;6408;59.388;17.798;2023-09-30T00:03:55;11.75;;;6.68;;
12687;SDS011;6408;59.388;17.798;2023-09-30T00:06:41;11.75;;;6.22;;
12687;SDS011;6408;59.388;17.798;2023-09-30T00:12:32;10.50;;;6.30;;
12687;SDS011;6408;59.388;17.798;2023-09-30T00:25:11;10.15;;;6.38;;
12687;SDS011;6408;59.388;17.798;2023-09-30T00:27:43;9.93;;;6.05;;
12687;SDS011;6408;59.388;17.798;2023-09-30T00:30:18;11.25;;;5.93;;
12687;SDS011;6408;59.388;17.798;2023-09-30T00:36:47;9.23;;;5.88;;
12687;SDS011;6408;59.388;17.798;2023-09-30T00:45:36;8.38;;;5.05;;
12687;SDS011;6408;59.388;17.798;2023-09-30T00:48:42;10.68;;;4.40;;
12687;SDS011;6408;59.388;17.798;2023-09-30T00:51:11;6.90;;;4.78;;
12687;SDS011;6408;59.388;17.798;2023-09-30T00:53:41;6.63;;;4.45;;
12687;SDS011;6408;59.388;17.798;2023-09-30T00:56:10;7.28;;;4.70;;
12687;SDS011;6408;59.388;17.798;2023-09-30T00:59:08;7.03;;;4.22;;
12687;SDS011;6408;59.388;17.798;2023-09-30T01:04:42;7.63;;;4.18;;
12687;SDS011;6408;59.388;17.798;2023-09-30T01:07:11;5.40;;;3.95;;
12687;SDS011;6408;59.388;17.798;2023-09-30T01:09:41;6.57;;;3.47;;
12687;SDS011;6408;59.388;17.798;2023-09-30T01:12:12;7.25;;;3.38;;
12687;SDS011;6408;59.388;17.798;2023-09-30T01:14:59;5.82;;;2.60;;
12687;SDS011;6408;59.388;17.798;2023-09-30T01:18:10;3.28;;;2.78;;
12687;SDS011;6408;59.388;17.798;2023-09-30T01:20:59;3.55;;;2.17;;
12687;SDS011;6408;59.388;17.798;2023-09-30T01:24:08;2.40;;;2.20;;
12687;SDS011;6408;59.388;17.798;2023-09-30T01:30:20;3.42;;;2.00;;
12687;SDS011;6408;59.388;17.798;2023-09-30T01:32:49;5.43;;;2.20;;
12687;SDS011;6408;59.388;17.798;2023-09-30T01:35:45;2.70;;;1.88;;
12687;SDS011;6408;59.388;17.798;2023-09-30T01:38:12;2.22;;;1.90;;
12687;SDS011;6408;59.388;17.798;2023-09-30T01:41:00;2.63;;;1.73;;
12687;SDS011;6408;59.388;17.798;2023-09-30T01:46:50;1.98;;;1.30;;
12687;SDS011;6408;59.388;17.798;2023-09-30T01:59:13;3.50;;;1.65;;
12687;SDS011;6408;59.388;17.798;2023-09-30T02:04:33;4.38;;;2.22;;
12687;SDS011;6408;59.388;17.798;2023-09-30T02:07:09;3.72;;;2.15;;
12687;SDS011;6408;59.388;17.798;2023-09-30T02:10:00;2.93;;;2.20;;
12687;SDS011;6408;59.388;17.798;2023-09-30T02:12:57;3.67;;;2.10;;
12687;SDS011;6408;59.388;17.798;2023-09-30T02:15:45;4.87;;;2.33;;
12687;SDS011;6408;59.388;17.798;2023-09-30T02:22:02;3.40;;;1.90;;
12687;SDS011;6408;59.388;17.798;2023-09-30T02:24:58;4.80;;;2.10;;
12687;SDS011;6408;59.388;17.798;2023-09-30T02:34:05;3.30;;;2.17;;
12687;SDS011;6408;59.388;17.798;2023-09-30T02:36:37;6.70;;;2.17;;
12687;SDS011;6408;59.388;17.798;2023-09-30T02:39:33;3.10;;;1.90;;
12687;SDS011;6408;59.388;17.798;2023-09-30T02:42:09;3.43;;;2.10;;
12687;SDS011;6408;59.388;17.798;2023-09-30T02:45:06;5.13;;;2.60;;
12687;SDS011;6408;59.388;17.798;2023-09-30T02:47:35;5.73;;;2.37;;
12687;SDS011;6408;59.388;17.798;2023-09-30T02:53:15;4.77;;;2.23;;
12687;SDS011;6408;59.388;17.798;2023-09-30T02:56:35;4.67;;;2.40;;
12687;SDS011;6408;59.388;17.798;2023-09-30T02:59:24;6.97;;;2.30;;
12687;SDS011;6408;59.388;17.798;2023-09-30T03:15:42;3.80;;;1.97;;
12687;SDS011;6408;59.388;17.798;2023-09-30T03:18:16;5.97;;;2.30;;
12687;SDS011;6408;59.388;17.798;2023-09-30T03:21:17;7.13;;;2.57;;
12687;SDS011;6408;59.388;17.798;2023-09-30T03:24:00;6.25;;;2.30;;
12687;SDS011;6408;59.388;17.798;2023-09-30T03:27:00;5.73;;;2.30;;
12687;SDS011;6408;59.388;17.798;2023-09-30T03:33:17;7.07;;;2.40;;
12687;SDS011;6408;59.388;17.798;2023-09-30T03:42:54;7.03;;;2.60;;
12687;SDS011;6408;59.388;17.798;2023-09-30T03:46:00;7.30;;;2.80;;
12687;SDS011;6408;59.388;17.798;2023-09-30T03:55:51;7.27;;;2.90;;
12687;SDS011;6408;59.388;17.798;2023-09-30T03:58:39;8.13;;;2.70;;
12687;SDS011;6408;59.388;17.798;2023-09-30T04:04:12;6.33;;;2.73;;
12687;SDS011;6408;59.388;17.798;2023-09-30T04:06:51;7.73;;;2.93;;
12687;SDS011;6408;59.388;17.798;2023-09-30T04:09:20;9.60;;;3.70;;
12687;SDS011;6408;59.388;17.798;2023-09-30T04:12:11;7.23;;;3.03;;
12687;SDS011;6408;59.388;17.798;2023-09-30T04:14:53;6.60;;;2.60;;
12687;SDS011;6408;59.388;17.798;2023-09-30T04:17:20;6.53;;;2.80;;
12687;SDS011;6408;59.388;17.798;2023-09-30T04:19:48;5.33;;;2.80;;
12687;SDS011;6408;59.388;17.798;2023-09-30T04:22:35;9.80;;;3.67;;
12687;SDS011;6408;59.388;17.798;2023-09-30T04:25:21;8.30;;;3.23;;
12687;SDS011;6408;59.388;17.798;2023-09-30T04:31:29;8.47;;;3.57;;
12687;SDS011;6408;59.388;17.798;2023-09-30T04:33:57;10.37;;;3.37;;
12687;SDS011;6408;59.388;17.798;2023-09-30T04:36:25;10.70;;;3.37;;
12687;SDS011;6408;59.388;17.798;2023-09-30T04:39:05;10.23;;;3.50;;
12687;SDS011;6408;59.388;17.798;2023-09-30T04:41:33;9.63;;;3.17;;
12687;SDS011;6408;59.388;17.798;2023-09-30T04:44:16;7.17;;;3.17;;
12687;SDS011;6408;59.388;17.798;2023-09-30T04:49:47;10.33;;;3.10;;
12687;SDS011;6408;59.388;17.798;2023-09-30T04:52:22;9.47;;;3.07;;
12687;SDS011;6408;59.388;17.798;2023-09-30T04:54:56;11.00;;;3.30;;
12687;SDS011;6408;59.388;17.798;2023-09-30T04:57:31;12.17;;;3.57;;
12687;SDS011;6408;59.388;17.798;2023-09-30T05:00:14;11.73;;;3.80;;
12687;SDS011;6408;59.388;17.798;2023-09-30T05:02:54;11.17;;;3.70;;
12687;SDS011;6408;59.388;17.798;2023-09-30T05:05:26;9.30;;;3.47;;
12687;SDS011;6408;59.388;17.798;2023-09-30T05:08:25;8.40;;;3.70;;
12687;SDS011;6408;59.388;17.798;2023-09-30T05:10:58;10.43;;;3.23;;
12687;SDS011;6408;59.388;17.798;2023-09-30T05:16:49;8.23;;;3.03;;
12687;SDS011;6408;59.388;17.798;2023-09-30T05:19:29;9.03;;;3.30;;
12687;SDS011;6408;59.388;17.798;2023-09-30T05:21:58;10.87;;;3.47;;
12687;SDS011;6408;59.388;17.798;2023-09-30T05:24:48;10.83;;;3.07;;
12687;SDS011;6408;59.388;17.798;2023-09-30T05:27:33;12.03;;;3.37;;
12687;SDS011;6408;59.388;17.798;2023-09-30T05:33:01;7.67;;;3.17;;
12687;SDS011;6408;59.388;17.798;2023-09-30T05:35:52;11.67;;;3.23;;
12687;SDS011;6408;59.388;17.798;2023-09-30T05:38:21;13.40;;;3.63;;
12687;SDS011;6408;59.388;17.798;2023-09-30T05:40:52;13.80;;;3.53;;
12687;SDS011;6408;59.388;17.798;2023-09-30T05:43:22;7.40;;;3.13;;
12687;SDS011;6408;59.388;17.798;2023-09-30T05:46:03;9.93;;;3.03;;
12687;SDS011;6408;59.388;17.798;2023-09-30T05:48:36;8.33;;;3.03;;
12687;SDS011;6408;59.388;17.798;2023-09-30T05:51:11;8.53;;;3.23;;
12687;SDS011;6408;59.388;17.798;2023-09-30T05:53:40;8.30;;;2.70;;
12687;SDS011;6408;59.388;17.798;2023-09-30T05:56:14;10.00;;;2.90;;
12687;SDS011;6408;59.388;17.798;2023-09-30T05:58:41;8.20;;;3.00;;
12687;SDS011;6408;59.388;17.798;2023-09-30T06:01:17;7.70;;;2.67;;
12687;SDS011;6408;59.388;17.798;2023-09-30T06:04:25;9.13;;;2.70;;
12687;SDS011;6408;59.388;17.798;2023-09-30T06:06:52;7.23;;;2.80;;
12687;SDS011;6408;59.388;17.798;2023-09-30T06:09:22;12.07;;;2.87;;
12687;SDS011;6408;59.388;17.798;2023-09-30T06:12:17;7.77;;;2.93;;
12687;SDS011;6408;59.388;17.798;2023-09-30T06:15:01;7.73;;;2.70;;
12687;SDS011;6408;59.388;17.798;2023-09-30T06:17:44;7.50;;;2.80;;
12687;SDS011;6408;59.388;17.798;2023-09-30T06:20:13;12.30;;;3.10;;
12687;SDS011;6408;59.388;17.798;2023-09-30T06:22:48;8.63;;;3.30;;
12687;SDS011;6408;59.388;17.798;2023-09-30T06:31:34;8.70;;;2.90;;
12687;SDS011;6408;59.388;17.798;2023-09-30T06:34:04;14.27;;;3.03;;
12687;SDS011;6408;59.388;17.798;2023-09-30T06:36:45;8.87;;;2.90;;
12687;SDS011;6408;59.388;17.798;2023-09-30T06:39:20;11.60;;;2.87;;
12687;SDS011;6408;59.388;17.798;2023-09-30T06:41:58;10.03;;;2.97;;
12687;SDS011;6408;59.388;17.798;2023-09-30T06:44:26;9.27;;;3.13;;
12687;SDS011;6408;59.388;17.798;2023-09-30T06:47:06;6.50;;;2.77;;
12687;SDS011;6408;59.388;17.798;2023-09-30T06:49:39;11.13;;;3.10;;
12687;SDS011;6408;59.388;17.798;2023-09-30T06:52:16;9.87;;;2.83;;
12687;SDS011;6408;59.388;17.798;2023-09-30T06:58:15;11.40;;;3.40;;
12687;SDS011;6408;59.388;17.798;2023-09-30T07:00:57;8.57;;;3.03;;
12687;SDS011;6408;59.388;17.798;2023-09-30T07:03:39;11.80;;;3.43;;
12687;SDS011;6408;59.388;17.798;2023-09-30T07:06:07;12.00;;;2.97;;
12687;SDS011;6408;59.388;17.798;2023-09-30T07:08:37;10.07;;;2.87;;
12687;SDS011;6408;59.388;17.798;2023-09-30T07:11:26;9.23;;;2.70;;
12687;SDS011;6408;59.388;17.798;2023-09-30T07:17:20;8.47;;;2.13;;
12687;SDS011;6408;59.388;17.798;2023-09-30T07:19:50;12.17;;;3.53;;
12687;SDS011;6408;59.388;17.798;2023-09-30T07:22:31;10.80;;;2.97;;
12687;SDS011;6408;59.388;17.798;2023-09-30T07:26:35;11.47;;;2.70;;
12687;SDS011;6408;59.388;17.798;2023-09-30T07:28:44;10.27;;;2.53;;
12687;SDS011;6408;59.388;17.798;2023-09-30T07:34:18;7.50;;;2.70;;
12687;SDS011;6408;59.388;17.798;2023-09-30T07:37:14;10.73;;;2.70;;
12687;SDS011;6408;59.388;17.798;2023-09-30T07:40:17;11.27;;;3.10;;
12687;SDS011;6408;59.388;17.798;2023-09-30T07:43:31;12.57;;;2.80;;
12687;SDS011;6408;59.388;17.798;2023-09-30T07:46:05;10.38;;;2.85;;
12687;SDS011;6408;59.388;17.798;2023-09-30T07:49:19;11.55;;;2.75;;
12687;SDS011;6408;59.388;17.798;2023-09-30T07:52:26;6.65;;;2.55;;
12687;SDS011;6408;59.388;17.798;2023-09-30T07:55:18;9.93;;;2.47;;
12687;SDS011;6408;59.388;17.798;2023-09-30T08:00:56;8.77;;;2.40;;
12687;SDS011;6408;59.388;17.798;2023-09-30T08:03:41;10.27;;;2.22;;
12687;SDS011;6408;59.388;17.798;2023-09-30T08:06:28;9.60;;;2.88;;
12687;SDS011;6408;59.388;17.798;2023-09-30T08:09:25;13.98;;;3.30;;
12687;SDS011;6408;59.388;17.798;2023-09-30T08:19:06;9.50;;;2.78;;
12687;SDS011;6408;59.388;17.798;2023-09-30T08:22:07;6.07;;;2.60;;
12687;SDS011;6408;59.388;17.798;2023-09-30T08:24:37;8.25;;;2.55;;
12687;SDS011;6408;59.388;17.798;2023-09-30T08:27:45;10.85;;;2.80;;
12687;SDS011;6408;59.388;17.798;2023-09-30T08:30:25;9.50;;;2.83;;
12687;SDS011;6408;59.388;17.798;2023-09-30T08:33:38;5.97;;;2.70;;
12687;SDS011;6408;59.388;17.798;2023-09-30T08:36:20;10.13;;;2.55;;
12687;SDS011;6408;59.388;17.798;2023-09-30T08:39:21;8.00;;;3.05;;
12687;SDS011;6408;59.388;17.798;2023-09-30T08:42:03;10.82;;;2.80;;
12687;SDS011;6408;59.388;17.798;2023-09-30T08:44:40;8.07;;;2.72;;
12687;SDS011;6408;59.388;17.798;2023-09-30T08:47:11;8.75;;;3.10;;
12687;SDS011;6408;59.388;17.798;2023-09-30T08:49:56;9.88;;;2.75;;
12687;SDS011;6408;59.388;17.798;2023-09-30T08:52:59;7.78;;;2.88;;
12687;SDS011;6408;59.388;17.798;2023-09-30T09:06:14;8.50;;;2.80;;
12687;SDS011;6408;59.388;17.798;2023-09-30T09:16:21;12.40;;;2.97;;
12687;SDS011;6408;59.388;17.798;2023-09-30T09:22:55;9.55;;;2.90;;
12687;SDS011;6408;59.388;17.798;2023-09-30T09:25:26;9.43;;;2.55;;
12687;SDS011;6408;59.388;17.798;2023-09-30T09:31:35;8.55;;;2.55;;
12687;SDS011;6408;59.388;17.798;2023-09-30T09:34:59;7.70;;;3.22;;
12687;SDS011;6408;59.388;17.798;2023-09-30T09:37:14;9.77;;;2.80;;
12687;SDS011;6408;59.388;17.798;2023-09-30T09:53:23;6.60;;;2.70;;
12687;SDS011;6408;59.388;17.798;2023-09-30T09:55:56;8.15;;;2.40;;
12687;SDS011;6408;59.388;17.798;2023-09-30T09:58:35;9.68;;;2.78;;
12687;SDS011;6408;59.388;17.798;2023-09-30T10:01:08;5.03;;;2.17;;
12687;SDS011;6408;59.388;17.798;2023-09-30T10:10:19;5.60;;;2.22;;
12687;SDS011;6408;59.388;17.798;2023-09-30T10:14:11;7.07;;;2.53;;
12687;SDS011;6408;59.388;17.798;2023-09-30T10:17:11;7.18;;;2.53;;
12687;SDS011;6408;59.388;17.798;2023-09-30T10:26:18;5.70;;;2.22;;
12687;SDS011;6408;59.388;17.798;2023-09-30T10:29:00;8.43;;;2.30;;
12687;SDS011;6408;59.388;17.798;2023-09-30T10:31:51;7.25;;;2.67;;
12687;SDS011;6408;59.388;17.798;2023-09-30T10:35:00;10.43;;;2.50;;
12687;SDS011;6408;59.388;17.798;2023-09-30T10:37:30;9.13;;;2.42;;
12687;SDS011;6408;59.388;17.798;2023-09-30T10:40:32;8.27;;;2.30;;
12687;SDS011;6408;59.388;17.798;2023-09-30T10:46:30;7.20;;;2.20;;
12687;SDS011;6408;59.388;17.798;2023-09-30T10:49:15;6.28;;;2.08;;
12687;SDS011;6408;59.388;17.798;2023-09-30T10:52:05;5.43;;;1.63;;
12687;SDS011;6408;59.388;17.798;2023-09-30T10:54:50;8.27;;;1.70;;
12687;SDS011;6408;59.388;17.798;2023-09-30T10:57:26;8.82;;;2.17;;
12687;SDS011;6408;59.388;17.798;2023-09-30T11:03:02;5.00;;;1.73;;
12687;SDS011;6408;59.388;17.798;2023-09-30T11:11:46;5.43;;;1.83;;
12687;SDS011;6408;59.388;17.798;2023-09-30T11:14:43;6.20;;;1.73;;
12687;SDS011;6408;59.388;17.798;2023-09-30T11:30:32;5.72;;;2.00;;
12687;SDS011;6408;59.388;17.798;2023-09-30T11:37:00;4.55;;;2.00;;
12687;SDS011;6408;59.388;17.798;2023-09-30T11:49:37;4.80;;;1.45;;
12687;SDS011;6408;59.388;17.798;2023-09-30T11:55:49;4.63;;;1.80;;
12687;SDS011;6408;59.388;17.798;2023-09-30T11:58:21;5.72;;;1.60;;
12687;SDS011;6408;59.388;17.798;2023-09-30T12:00:54;6.43;;;1.80;;
12687;SDS011;6408;59.388;17.798;2023-09-30T12:03:39;3.47;;;1.40;;
12687;SDS011;6408;59.388;17.798;2023-09-30T12:10:14;5.78;;;1.27;;
12687;SDS011;6408;59.388;17.798;2023-09-30T12:13:14;3.15;;;1.10;;
12687;SDS011;6408;59.388;17.798;2023-09-30T12:16:05;5.78;;;1.35;;
12687;SDS011;6408;59.388;17.798;2023-09-30T12:19:03;3.55;;;1.27;;
12687;SDS011;6408;59.388;17.798;2023-09-30T12:24:38;4.22;;;1.40;;
12687;SDS011;6408;59.388;17.798;2023-09-30T12:27:13;3.63;;;1.23;;
12687;SDS011;6408;59.388;17.798;2023-09-30T12:36:50;3.05;;;1.20;;
12687;SDS011;6408;59.388;17.798;2023-09-30T12:42:53;2.20;;;0.98;;
12687;SDS011;6408;59.388;17.798;2023-09-30T12:45:22;4.50;;;1.23;;
12687;SDS011;6408;59.388;17.798;2023-09-30T12:48:12;4.72;;;1.38;;
12687;SDS011;6408;59.388;17.798;2023-09-30T12:53:37;3.97;;;1.08;;
12687;SDS011;6408;59.388;17.798;2023-09-30T12:59:26;6.07;;;1.30;;
12687;SDS011;6408;59.388;17.798;2023-09-30T13:06:00;3.42;;;1.45;;
12687;SDS011;6408;59.388;17.798;2023-09-30T13:12:20;3.72;;;1.23;;
12687;SDS011;6408;59.388;17.798;2023-09-30T13:15:41;2.22;;;1.00;;
12687;SDS011;6408;59.388;17.798;2023-09-30T13:18:09;5.00;;;1.10;;
12687;SDS011;6408;59.388;17.798;2023-09-30T13:20:37;4.65;;;1.38;;
12687;SDS011;6408;59.388;17.798;2023-09-30T13:23:08;4.72;;;1.17;;
12687;SDS011;6408;59.388;17.798;2023-09-30T13:25:36;1.45;;;0.80;;
12687;SDS011;6408;59.388;17.798;2023-09-30T13:28:21;3.03;;;1.10;;
12687;SDS011;6408;59.388;17.798;2023-09-30T13:31:00;2.55;;;1.20;;
12687;SDS011;6408;59.388;17.798;2023-09-30T13:33:37;4.25;;;1.02;;
12687;SDS011;6408;59.388;17.798;2023-09-30T13:36:07;2.58;;;0.93;;
12687;SDS011;6408;59.388;17.798;2023-09-30T13:39:04;2.38;;;0.90;;
12687;SDS011;6408;59.388;17.798;2023-09-30T13:41:44;4.90;;;1.42;;
12687;SDS011;6408;59.388;17.798;2023-09-30T13:47:31;5.25;;;1.33;;
12687;SDS011;6408;59.388;17.798;2023-09-30T13:50:08;3.03;;;0.95;;
12687;SDS011;6408;59.388;17.798;2023-09-30T13:52:46;2.55;;;1.20;;
12687;SDS011;6408;59.388;17.798;2023-09-30T13:55:16;4.38;;;1.00;;
12687;SDS011;6408;59.388;17.798;2023-09-30T13:57:49;3.83;;;1.02;;
12687;SDS011;6408;59.388;17.798;2023-09-30T14:04:03;5.47;;;1.00;;
12687;SDS011;6408;59.388;17.798;2023-09-30T14:06:32;4.22;;;1.30;;
12687;SDS011;6408;59.388;17.798;2023-09-30T14:09:43;4.70;;;1.30;;
12687;SDS011;6408;59.388;17.798;2023-09-30T14:12:22;2.75;;;1.20;;
12687;SDS011;6408;59.388;17.798;2023-09-30T14:15:04;2.50;;;1.00;;
12687;SDS011;6408;59.388;17.798;2023-09-30T14:17:38;2.53;;;1.15;;
12687;SDS011;6408;59.388;17.798;2023-09-30T14:20:20;2.70;;;1.15;;
12687;SDS011;6408;59.388;17.798;2023-09-30T14:22:53;4.72;;;1.13;;
12687;SDS011;6408;59.388;17.798;2023-09-30T14:25:28;2.08;;;1.10;;
12687;SDS011;6408;59.388;17.798;2023-09-30T14:28:01;3.83;;;1.20;;
12687;SDS011;6408;59.388;17.798;2023-09-30T14:30:53;2.72;;;1.30;;
12687;SDS011;6408;59.388;17.798;2023-09-30T14:33:51;4.45;;;1.38;;
12687;SDS011;6408;59.388;17.798;2023-09-30T14:36:48;2.35;;;1.00;;
12687;SDS011;6408;59.388;17.798;2023-09-30T14:39:33;3.42;;;1.17;;
12687;SDS011;6408;59.388;17.798;2023-09-30T14:42:08;5.10;;;1.55;;
12687;SDS011;6408;59.388;17.798;2023-09-30T14:45:16;2.00;;;1.02;;
12687;SDS011;6408;59.388;17.798;2023-09-30T14:47:49;3.58;;;1.50;;
12687;SDS011;6408;59.388;17.798;2023-09-30T14:50:26;2.45;;;1.27;;
12687;SDS011;6408;59.388;17.798;2023-09-30T14:53:06;1.98;;;1.00;;
12687;SDS011;6408;59.388;17.798;2023-09-30T14:55:35;2.97;;;1.40;;
12687;SDS011;6408;59.388;17.798;2023-09-30T14:58:07;4.72;;;1.27;;
12687;SDS011;6408;59.388;17.798;2023-09-30T15:00:45;4.32;;;1.45;;
12687;SDS011;6408;59.388;17.798;2023-09-30T15:03:29;3.95;;;1.30;;
12687;SDS011;6408;59.388;17.798;2023-09-30T15:06:00;4.95;;;1.30;;
12687;SDS011;6408;59.388;17.798;2023-09-30T15:08:33;4.57;;;1.90;;
12687;SDS011;6408;59.388;17.798;2023-09-30T15:11:16;4.75;;;1.20;;
12687;SDS011;6408;59.388;17.798;2023-09-30T15:14:10;3.38;;;1.45;;
12687;SDS011;6408;59.388;17.798;2023-09-30T15:23:01;3.03;;;1.42;;
12687;SDS011;6408;59.388;17.798;2023-09-30T15:28:59;6.07;;;1.80;;
12687;SDS011;6408;59.388;17.798;2023-09-30T15:31:55;6.28;;;2.00;;
12687;SDS011;6408;59.388;17.798;2023-09-30T15:34:28;3.97;;;1.30;;
12687;SDS011;6408;59.388;17.798;2023-09-30T15:48:21;7.50;;;1.30;;
12687;SDS011;6408;59.388;17.798;2023-09-30T15:51:06;4.50;;;1.23;;
12687;SDS011;6408;59.388;17.798;2023-09-30T15:55:15;3.15;;;1.27;;
12687;SDS011;6408;59.388;17.798;2023-09-30T15:57:05;4.45;;;1.20;;
12687;SDS011;6408;59.388;17.798;2023-09-30T15:59:48;6.28;;;1.50;;
12687;SDS011;6408;59.388;17.798;2023-09-30T16:02:21;4.25;;;1.23;;
12687;SDS011;6408;59.388;17.798;2023-09-30T16:05:07;5.45;;;1.42;;
12687;SDS011;6408;59.388;17.798;2023-09-30T16:08:02;3.45;;;1.33;;
12687;SDS011;6408;59.388;17.798;2023-09-30T16:11:01;4.45;;;1.25;;
12687;SDS011;6408;59.388;17.798;2023-09-30T16:17:21;2.55;;;0.93;;
12687;SDS011;6408;59.388;17.798;2023-09-30T16:20:21;3.58;;;1.10;;
12687;SDS011;6408;59.388;17.798;2023-09-30T16:23:34;4.43;;;1.40;;
12687;SDS011;6408;59.388;17.798;2023-09-30T16:26:32;9.30;;;1.20;;
12687;SDS011;6408;59.388;17.798;2023-09-30T16:33:58;4.63;;;1.20;;
12687;SDS011;6408;59.388;17.798;2023-09-30T16:36:24;4.57;;;1.40;;
12687;SDS011;6408;59.388;17.798;2023-09-30T16:39:17;3.95;;;1.10;;
12687;SDS011;6408;59.388;17.798;2023-09-30T16:45:35;2.40;;;1.10;;
12687;SDS011;6408;59.388;17.798;2023-09-30T16:48:36;3.58;;;1.45;;
12687;SDS011;6408;59.388;17.798;2023-09-30T17:02:03;2.92;;;1.10;;
12687;SDS011;6408;59.388;17.798;2023-09-30T17:05:11;2.00;;;1.00;;
12687;SDS011;6408;59.388;17.798;2023-09-30T17:07:58;2.35;;;1.02;;
12687;SDS011;6408;59.388;17.798;2023-09-30T17:11:27;4.07;;;1.20;;
12687;SDS011;6408;59.388;17.798;2023-09-30T17:14:35;4.20;;;1.40;;
12687;SDS011;6408;59.388;17.798;2023-09-30T17:20:44;2.87;;;1.00;;
12687;SDS011;6408;59.388;17.798;2023-09-30T17:23:28;4.75;;;1.10;;
12687;SDS011;6408;59.388;17.798;2023-09-30T17:30:15;4.60;;;1.30;;
12687;SDS011;6408;59.388;17.798;2023-09-30T17:33:16;3.70;;;1.27;;
12687;SDS011;6408;59.388;17.798;2023-09-30T17:43:07;2.17;;;1.10;;
12687;SDS011;6408;59.388;17.798;2023-09-30T17:45:52;4.20;;;1.40;;
12687;SDS011;6408;59.388;17.798;2023-09-30T17:49:13;4.37;;;1.10;;
12687;SDS011;6408;59.388;17.798;2023-09-30T18:02:10;3.67;;;1.20;;
12687;SDS011;6408;59.388;17.798;2023-09-30T18:04:58;3.83;;;1.10;;
12687;SDS011;6408;59.388;17.798;2023-09-30T18:13:28;2.77;;;1.30;;
12687;SDS011;6408;59.388;17.798;2023-09-30T18:21:33;2.20;;;0.90;;
12687;SDS011;6408;59.388;17.798;2023-09-30T18:24:52;1.73;;;0.80;;
12687;SDS011;6408;59.388;17.798;2023-09-30T18:27:46;3.73;;;1.20;;
12687;SDS011;6408;59.388;17.798;2023-09-30T18:36:43;1.93;;;0.80;;
12687;SDS011;6408;59.388;17.798;2023-09-30T18:39:21;1.43;;;1.00;;
12687;SDS011;6408;59.388;17.798;2023-09-30T18:45:41;2.20;;;1.00;;
12687;SDS011;6408;59.388;17.798;2023-09-30T18:51:43;3.33;;;0.93;;
12687;SDS011;6408;59.388;17.798;2023-09-30T18:57:39;2.43;;;0.97;;
12687;SDS011;6408;59.388;17.798;2023-09-30T19:00:33;2.53;;;0.90;;
12687;SDS011;6408;59.388;17.798;2023-09-30T19:06:56;1.87;;;0.80;;
12687;SDS011;6408;59.388;17.798;2023-09-30T19:09:27;1.20;;;0.77;;
12687;SDS011;6408;59.388;17.798;2023-09-30T19:18:51;1.40;;;0.93;;
12687;SDS011;6408;59.388;17.798;2023-09-30T19:21:21;2.67;;;1.00;;
12687;SDS011;6408;59.388;17.798;2023-09-30T19:24:00;2.20;;;0.80;;
12687;SDS011;6408;59.388;17.798;2023-09-30T19:33:42;1.80;;;0.80;;
12687;SDS011;6408;59.388;17.798;2023-09-30T19:39:01;1.43;;;0.70;;
12687;SDS011;6408;59.388;17.798;2023-09-30T19:40:03;2.70;;;1.20;;
12687;SDS011;6408;59.388;17.798;2023-09-30T19:46:36;2.77;;;0.80;;
12687;SDS011;6408;59.388;17.798;2023-09-30T19:49:44;3.73;;;1.00;;
12687;SDS011;6408;59.388;17.798;2023-09-30T19:52:13;1.77;;;1.00;;
12687;SDS011;6408;59.388;17.798;2023-09-30T19:54:45;5.63;;;1.17;;
12687;SDS011;6408;59.388;17.798;2023-09-30T20:00:05;1.63;;;1.00;;
12687;SDS011;6408;59.388;17.798;2023-09-30T20:06:52;1.67;;;1.07;;
12687;SDS011;6408;59.388;17.798;2023-09-30T20:15:20;2.07;;;1.23;;
12687;SDS011;6408;59.388;17.798;2023-09-30T20:19:24;3.33;;;1.20;;
12687;SDS011;6408;59.388;17.798;2023-09-30T20:24:39;2.30;;;1.20;;
12687;SDS011;6408;59.388;17.798;2023-09-30T20:34:03;2.93;;;1.30;;
12687;SDS011;6408;59.388;17.798;2023-09-30T20:36:35;3.47;;;1.20;;
12687;SDS011;6408;59.388;17.798;2023-09-30T20:39:16;2.03;;;1.10;;
12687;SDS011;6408;59.388;17.798;2023-09-30T20:44:50;1.73;;;0.97;;
12687;SDS011;6408;59.388;17.798;2023-09-30T20:48:04;2.03;;;1.10;;
12687;SDS011;6408;59.388;17.798;2023-09-30T20:51:27;3.80;;;1.30;;
12687;SDS011;6408;59.388;17.798;2023-09-30T20:55:05;3.63;;;1.57;;
12687;SDS011;6408;59.388;17.798;2023-09-30T20:58:01;3.10;;;0.90;;
12687;SDS011;6408;59.388;17.798;2023-09-30T21:00:46;2.90;;;1.23;;
12687;SDS011;6408;59.388;17.798;2023-09-30T21:03:39;1.77;;;1.00;;
12687;SDS011;6408;59.388;17.798;2023-09-30T21:10:20;3.73;;;1.40;;
12687;SDS011;6408;59.388;17.798;2023-09-30T21:22:37;2.70;;;1.27;;
12687;SDS011;6408;59.388;17.798;2023-09-30T21:25:21;3.30;;;1.20;;
12687;SDS011;6408;59.388;17.798;2023-09-30T21:31:13;2.57;;;1.20;;
12687;SDS011;6408;59.388;17.798;2023-09-30T21:34:03;2.97;;;1.20;;
12687;SDS011;6408;59.388;17.798;2023-09-30T21:40:39;3.43;;;1.20;;
12687;SDS011;6408;59.388;17.798;2023-09-30T21:43:12;5.37;;;1.27;;
12687;SDS011;6408;59.388;17.798;2023-09-30T21:49:19;3.90;;;1.30;;
12687;SDS011;6408;59.388;17.798;2023-09-30T22:02:37;2.53;;;0.97;;
12687;SDS011;6408;59.388;17.798;2023-09-30T22:05:13;1.97;;;1.10;;
12687;SDS011;6408;59.388;17.798;2023-09-30T22:11:42;5.47;;;1.53;;
12687;SDS011;6408;59.388;17.798;2023-09-30T22:14:17;2.23;;;1.07;;
12687;SDS011;6408;59.388;17.798;2023-09-30T22:18:12;4.20;;;1.30;;
12687;SDS011;6408;59.388;17.798;2023-09-30T22:26:59;3.83;;;1.13;;
12687;SDS011;6408;59.388;17.798;2023-09-30T22:29:48;3.40;;;1.17;;
12687;SDS011;6408;59.388;17.798;2023-09-30T22:32:16;2.03;;;1.13;;
12687;SDS011;6408;59.388;17.798;2023-09-30T22:34:57;3.17;;;1.20;;
12687;SDS011;6408;59.388;17.798;2023-09-30T22:37:39;4.13;;;1.43;;
12687;SDS011;6408;59.388;17.798;2023-09-30T22:43:11;3.97;;;1.40;;
12687;SDS011;6408;59.388;17.798;2023-09-30T22:45:48;4.00;;;1.13;;
12687;SDS011;6408;59.388;17.798;2023-09-30T22:48:40;2.03;;;1.23;;
12687;SDS011;6408;59.388;17.798;2023-09-30T22:51:30;4.37;;;1.33;;
12687;SDS011;6408;59.388;17.798;2023-09-30T22:54:24;3.70;;;1.23;;
12687;SDS011;6408;59.388;17.798;2023-09-30T22:57:00;3.27;;;1.30;;
12687;SDS011;6408;59.388;17.798;2023-09-30T22:59:55;5.10;;;1.20;;
12687;SDS011;6408;59.388;17.798;2023-09-30T23:05:33;2.33;;;1.20;;
12687;SDS011;6408;59.388;17.798;2023-09-30T23:09:29;4.77;;;1.23;;
12687;SDS011;6408;59.388;17.798;2023-09-30T23:13:07;4.93;;;1.40;;
12687;SDS011;6408;59.388;17.798;2023-09-30T23:21:22;3.50;;;1.40;;
12687;SDS011;6408;59.388;17.798;2023-09-30T23:30:34;1.83;;;1.13;;
12687;SDS011;6408;59.388;17.798;2023-09-30T23:33:47;3.60;;;1.20;;
12687;SDS011;6408;59.388;17.798;2023-09-30T23:36:21;4.63;;;1.57;;
12687;SDS011;6408;59.388;17.798;2023-09-30T23:38:53;4.33;;;1.43;;
12687;SDS011;6408;59.388;17.798;2023-09-30T23:41:29;2.20;;;1.23;;
12687;SDS011;6408;59.388;17.798;2023-09-30T23:44:24;6.07;;;1.47;;
12687;SDS011;6408;59.388;17.798;2023-09-30T23:47:13;4.10;;;1.60;;
12687;SDS011;6408;59.388;17.798;2023-09-30T23:49:41;3.13;;;1.20;;
12687;SDS011;6408;59.388;17.798;2023-09-30T23:55:33;4.93;;;1.13;;
12687;SDS011;6408;59.388;17.798;2023-09-30T23:58:05;4.47;;;1.50;;
